createdAt,value
2022-10-13T00:01:24.543Z,9.19
2022-10-13T00:03:52.589Z,9.20
2022-10-13T00:06:22.754Z,9.23
2022-10-13T00:08:50.774Z,9.23
2022-10-13T00:11:24.770Z,9.24
2022-10-13T00:13:53.261Z,9.22
2022-10-13T00:16:22.349Z,9.22
2022-10-13T00:18:52.613Z,9.22
2022-10-13T00:21:23.841Z,9.23
2022-10-13T00:23:52.161Z,9.25
2022-10-13T00:26:20.992Z,9.26
2022-10-13T00:28:52.552Z,9.28
2022-10-13T00:31:26.524Z,9.27
2022-10-13T00:33:54.288Z,9.31
2022-10-13T00:36:24.136Z,9.29
2022-10-13T00:38:52.892Z,9.28
2022-10-13T00:41:20.778Z,9.25
2022-10-13T00:43:57.123Z,9.30
2022-10-13T00:46:27.887Z,9.27
2022-10-13T00:48:56.525Z,9.22
2022-10-13T00:51:28.670Z,9.19
2022-10-13T00:53:56.484Z,9.19
2022-10-13T00:56:26.969Z,9.15
2022-10-13T00:58:56.590Z,9.14
2022-10-13T01:01:24.215Z,9.10
2022-10-13T01:03:51.905Z,9.05
2022-10-13T01:06:23.598Z,8.99
2022-10-13T01:08:51.498Z,8.94
2022-10-13T01:11:43.650Z,8.91
2022-10-13T01:14:35.257Z,8.92
2022-10-13T01:17:07.746Z,8.88
2022-10-13T01:20:12.770Z,8.86
2022-10-13T01:22:53.299Z,8.83
2022-10-13T01:25:39.415Z,8.76
2022-10-13T01:28:45.464Z,8.72
2022-10-13T01:31:27.026Z,8.65
2022-10-13T01:34:39.461Z,8.65
2022-10-13T01:37:21.526Z,8.64
2022-10-13T01:39:58.859Z,8.60
2022-10-13T01:42:51.281Z,8.61
2022-10-13T01:45:24.997Z,8.61
2022-10-13T01:47:53.870Z,8.58
2022-10-13T01:50:24.385Z,8.56
2022-10-13T01:52:53.089Z,8.51
2022-10-13T01:55:20.587Z,8.53
2022-10-13T01:57:48.132Z,8.52
2022-10-13T02:00:18.465Z,8.54
2022-10-13T02:03:06.058Z,8.52
2022-10-13T02:06:29.013Z,8.53
2022-10-13T02:09:17.206Z,8.54
2022-10-13T02:11:51.085Z,8.55
2022-10-13T02:14:27.305Z,8.57
2022-10-13T02:16:57.003Z,8.60
2022-10-13T02:19:25.326Z,8.60
2022-10-13T02:21:55.837Z,8.61
2022-10-13T02:24:23.444Z,8.64
2022-10-13T02:26:52.348Z,8.67
2022-10-13T02:29:23.021Z,8.73
2022-10-13T02:31:50.593Z,8.75
2022-10-13T02:34:18.095Z,8.81
2022-10-13T02:36:45.569Z,8.83
2022-10-13T02:39:13.045Z,8.85
2022-10-13T02:41:40.533Z,8.84
2022-10-13T02:44:08.481Z,8.78
2022-10-13T02:46:37.488Z,8.77
2022-10-13T02:49:07.458Z,8.72
2022-10-13T02:51:39.088Z,8.71
2022-10-13T02:54:07.738Z,8.69
2022-10-13T02:56:35.298Z,8.61
2022-10-13T02:59:02.808Z,8.57
2022-10-13T03:01:30.311Z,8.56
2022-10-13T03:03:57.797Z,8.51
2022-10-13T03:06:25.296Z,8.44
2022-10-13T03:08:52.790Z,8.42
2022-10-13T03:11:20.279Z,8.41
2022-10-13T03:13:49.901Z,8.43
2022-10-13T03:16:17.662Z,8.40
2022-10-13T03:18:45.557Z,8.36
2022-10-13T03:21:13.049Z,8.33
2022-10-13T03:23:40.781Z,8.29
2022-10-13T03:26:10.834Z,8.26
2022-10-13T03:28:38.350Z,8.28
2022-10-13T03:31:11.774Z,8.26
2022-10-13T03:33:41.041Z,8.21
2022-10-13T03:36:08.770Z,8.16
2022-10-13T03:38:38.779Z,8.17
2022-10-13T03:41:14.890Z,8.10
2022-10-13T03:43:44.243Z,8.14
2022-10-13T03:46:19.174Z,8.13
2022-10-13T03:48:48.007Z,8.09
2022-10-13T03:51:20.657Z,8.11
2022-10-13T03:53:49.682Z,8.12
2022-10-13T03:56:22.736Z,8.11
2022-10-13T03:58:53.846Z,8.10
2022-10-13T04:01:23.501Z,8.05
2022-10-13T04:03:53.885Z,7.98
2022-10-13T04:06:21.467Z,7.95
2022-10-13T04:08:52.641Z,7.95
2022-10-13T04:11:20.322Z,7.97
2022-10-13T04:13:48.035Z,8.00
2022-10-13T04:16:19.142Z,7.97
2022-10-13T04:18:51.213Z,7.93
2022-10-13T04:21:18.711Z,7.88
2022-10-13T04:23:46.250Z,7.92
2022-10-13T04:26:23.333Z,7.93
2022-10-13T04:28:54.693Z,7.92
2022-10-13T04:31:22.798Z,7.93
2022-10-13T04:33:51.071Z,7.93
2022-10-13T04:36:19.960Z,7.90
2022-10-13T04:38:50.198Z,7.88
2022-10-13T04:41:19.137Z,7.91
2022-10-13T04:43:50.687Z,7.88
2022-10-13T04:46:22.757Z,7.83
2022-10-13T04:48:51.238Z,7.82
2022-10-13T04:51:22.002Z,7.76
2022-10-13T04:53:50.176Z,7.69
2022-10-13T04:56:19.237Z,7.71
2022-10-13T04:58:47.222Z,7.73
2022-10-13T05:01:22.334Z,7.75
2022-10-13T05:03:56.686Z,7.77
2022-10-13T05:06:28.818Z,7.80
2022-10-13T05:08:58.770Z,7.80
2022-10-13T05:11:27.588Z,7.88
2022-10-13T05:13:57.965Z,7.88
2022-10-13T05:16:26.357Z,7.87
2022-10-13T05:18:55.278Z,7.90
2022-10-13T05:21:25.606Z,7.96
2022-10-13T05:23:55.690Z,8.03
2022-10-13T05:26:28.522Z,8.03
2022-10-13T05:28:57.644Z,8.11
2022-10-13T05:31:26.840Z,8.14
2022-10-13T05:33:57.259Z,8.19
2022-10-13T05:36:33.357Z,8.18
2022-10-13T05:39:07.459Z,8.21
2022-10-13T05:41:35.336Z,8.24
2022-10-13T05:44:06.938Z,8.29
2022-10-13T05:46:34.678Z,8.36
2022-10-13T05:49:02.248Z,8.45
2022-10-13T05:51:34.853Z,8.54
2022-10-13T05:54:14.302Z,8.61
2022-10-13T05:56:48.980Z,8.69
2022-10-13T05:59:26.939Z,8.81
2022-10-13T06:01:55.497Z,8.94
2022-10-13T06:04:38.513Z,9.05
2022-10-13T06:07:06.396Z,9.18
2022-10-13T06:09:38.820Z,9.33
2022-10-13T06:12:10.631Z,9.44
2022-10-13T06:14:38.437Z,9.57
2022-10-13T06:17:11.336Z,9.72
2022-10-13T06:19:41.804Z,9.91
2022-10-13T06:22:12.987Z,10.10
2022-10-13T06:24:40.549Z,10.27
2022-10-13T06:27:08.025Z,10.41
2022-10-13T06:29:40.938Z,10.54
2022-10-13T06:32:09.474Z,10.67
2022-10-13T06:34:37.056Z,10.82
2022-10-13T06:37:04.589Z,10.94
2022-10-13T06:39:32.102Z,11.07
2022-10-13T06:41:59.605Z,11.22
2022-10-13T06:44:29.607Z,11.36
2022-10-13T06:46:57.093Z,11.55
2022-10-13T06:49:25.550Z,11.72
2022-10-13T06:51:53.461Z,12.03
2022-10-13T06:54:20.973Z,12.42
2022-10-13T06:56:51.280Z,12.67
2022-10-13T06:59:19.122Z,12.94
2022-10-13T07:01:46.721Z,13.13
2022-10-13T07:04:14.216Z,13.18
2022-10-13T07:06:42.030Z,13.55
2022-10-13T07:09:09.848Z,13.81
2022-10-13T07:11:37.621Z,14.19
2022-10-13T07:14:07.339Z,14.70
2022-10-13T07:16:34.906Z,15.41
2022-10-13T07:19:02.765Z,15.82
2022-10-13T07:21:30.306Z,16.36
2022-10-13T07:23:58.059Z,16.92
2022-10-13T07:26:25.603Z,17.00
2022-10-13T07:28:56.318Z,16.87
2022-10-13T07:31:23.872Z,17.04
2022-10-13T07:33:51.771Z,17.29
2022-10-13T07:36:20.211Z,17.95
2022-10-13T07:38:49.986Z,18.28
2022-10-13T07:41:20.110Z,18.89
2022-10-13T07:43:47.599Z,19.55
2022-10-13T07:46:19.023Z,19.33
2022-10-13T07:48:46.553Z,19.83
2022-10-13T07:51:15.794Z,19.72
2022-10-13T07:53:44.198Z,19.76
2022-10-13T07:56:16.387Z,19.73
2022-10-13T07:58:46.485Z,19.74
2022-10-13T08:01:15.087Z,20.03
2022-10-13T08:03:47.148Z,20.15
2022-10-13T08:06:18.016Z,20.68
2022-10-13T08:08:45.758Z,20.00
2022-10-13T08:11:16.763Z,20.42
2022-10-13T08:13:51.216Z,21.12
2022-10-13T08:16:19.613Z,21.64
2022-10-13T08:18:50.470Z,21.44
2022-10-13T08:24:10.751Z,20.31
2022-10-13T08:26:38.273Z,19.71
2022-10-13T08:29:23.307Z,19.74
2022-10-13T08:31:52.858Z,21.00
2022-10-13T08:34:21.723Z,21.44
2022-10-13T08:36:52.651Z,21.89
2022-10-13T08:39:20.162Z,22.67
2022-10-13T08:41:47.951Z,22.87
2022-10-13T08:47:42.550Z,22.15
2022-10-13T08:50:20.886Z,23.39
2022-10-13T08:52:54.571Z,23.70
2022-10-13T08:55:27.131Z,24.02
2022-10-13T08:57:54.886Z,22.96
2022-10-13T09:00:24.908Z,23.60
2022-10-13T09:02:52.475Z,24.08
2022-10-13T09:05:30.681Z,23.86
2022-10-13T09:08:00.640Z,23.56
2022-10-13T09:10:28.141Z,24.29
2022-10-13T09:12:56.011Z,23.81
2022-10-13T09:15:25.834Z,23.79
2022-10-13T09:18:12.145Z,24.09
2022-10-13T09:20:39.961Z,24.37
2022-10-13T09:23:27.511Z,23.34
2022-10-13T09:25:56.092Z,23.79
2022-10-13T09:28:31.906Z,24.10
2022-10-13T09:31:14.490Z,24.12
2022-10-13T09:33:42.248Z,23.84
2022-10-13T09:36:13.081Z,23.12
2022-10-13T09:38:42.611Z,22.26
2022-10-13T09:41:10.068Z,23.18
2022-10-13T09:44:12.620Z,23.24
2022-10-13T09:46:59.823Z,22.40
2022-10-13T09:49:44.908Z,23.13
2022-10-13T09:52:17.339Z,23.25
2022-10-13T09:54:58.153Z,22.98
2022-10-13T09:57:37.549Z,23.67
2022-10-13T10:00:07.830Z,23.70
2022-10-13T10:02:59.103Z,23.37
2022-10-13T10:05:50.366Z,22.76
2022-10-13T10:08:58.135Z,22.63
2022-10-13T10:11:43.813Z,21.60
2022-10-13T10:14:23.662Z,22.29
2022-10-13T10:17:32.854Z,22.90
2022-10-13T10:20:13.096Z,23.09
2022-10-13T10:22:55.879Z,23.59
2022-10-13T10:25:35.305Z,23.28
2022-10-13T10:28:15.959Z,23.59
2022-10-13T10:30:55.316Z,23.90
2022-10-13T10:33:35.425Z,24.18
2022-10-13T10:36:16.985Z,24.50
2022-10-13T10:39:23.161Z,25.03
2022-10-13T10:41:50.632Z,25.12
2022-10-13T10:44:34.134Z,25.49
2022-10-13T10:47:17.564Z,25.10
2022-10-13T10:49:49.685Z,25.64
2022-10-13T10:52:27.546Z,25.44
2022-10-13T10:55:15.498Z,25.29
2022-10-13T10:57:58.126Z,23.95
2022-10-13T11:03:09.465Z,23.82
2022-10-13T11:06:18.168Z,23.82
2022-10-13T11:08:47.867Z,24.29
2022-10-13T11:11:26.767Z,25.06
2022-10-13T11:13:58.937Z,24.77
2022-10-13T11:16:59.568Z,24.63
2022-10-13T11:19:34.406Z,23.61
2022-10-13T11:22:01.873Z,23.78
2022-10-13T11:24:36.138Z,23.80
2022-10-13T11:27:10.617Z,23.90
2022-10-13T11:29:47.200Z,23.48
2022-10-13T11:32:26.734Z,23.04
2022-10-13T11:35:03.074Z,23.25
2022-10-13T11:38:06.737Z,23.23
2022-10-13T11:40:38.738Z,23.97
2022-10-13T11:43:36.370Z,24.74
2022-10-13T11:46:20.880Z,24.33
2022-10-13T11:49:07.785Z,24.31
2022-10-13T11:52:27.956Z,23.92
2022-10-13T11:55:10.694Z,24.01
2022-10-13T11:57:38.229Z,24.35
2022-10-13T12:00:06.527Z,24.68
2022-10-13T12:02:34.087Z,24.52
2022-10-13T12:05:03.071Z,24.39
2022-10-13T12:07:39.443Z,24.32
2022-10-13T12:10:09.821Z,24.60
2022-10-13T12:12:37.382Z,24.01
2022-10-13T12:15:31.038Z,23.18
2022-10-13T12:18:01.119Z,23.73
2022-10-13T12:20:33.025Z,23.95
2022-10-13T12:23:00.725Z,24.35
2022-10-13T12:25:33.640Z,24.49
2022-10-13T12:28:01.795Z,24.70
2022-10-13T12:30:29.566Z,25.05
2022-10-13T12:33:00.258Z,24.62
2022-10-13T12:35:30.907Z,24.49
2022-10-13T12:38:03.357Z,24.21
2022-10-13T12:40:31.320Z,23.95
2022-10-13T12:42:59.396Z,24.32
2022-10-13T12:45:32.552Z,23.96
2022-10-13T12:48:00.165Z,22.93
2022-10-13T12:50:28.044Z,23.23
2022-10-13T12:53:19.833Z,23.02
2022-10-13T12:55:51.315Z,22.63
2022-10-13T12:58:26.259Z,23.17
2022-10-13T13:01:10.629Z,22.82
2022-10-13T13:03:42.406Z,22.43
2022-10-13T13:06:15.874Z,22.22
2022-10-13T13:08:44.398Z,22.07
2022-10-13T13:11:34.438Z,21.57
2022-10-13T13:14:37.436Z,21.81
2022-10-13T13:17:45.235Z,21.49
2022-10-13T13:20:27.530Z,21.28
2022-10-13T13:22:57.478Z,20.90
2022-10-13T13:25:25.789Z,20.77
2022-10-13T13:27:54.267Z,20.62
2022-10-13T13:30:24.128Z,20.33
2022-10-13T13:32:52.145Z,19.98
2022-10-13T13:35:19.733Z,19.68
2022-10-13T13:37:53.031Z,19.57
2022-10-13T13:40:29.699Z,19.34
2022-10-13T13:42:57.383Z,19.38
2022-10-13T13:45:25.665Z,19.23
2022-10-13T13:47:56.762Z,19.18
2022-10-13T13:50:29.941Z,18.99
2022-10-13T13:52:58.090Z,18.91
2022-10-13T13:55:26.793Z,18.81
2022-10-13T13:57:54.394Z,18.82
2022-10-13T14:00:22.455Z,18.65
2022-10-13T14:02:52.485Z,18.57
2022-10-13T14:05:22.565Z,18.52
2022-10-13T14:07:50.545Z,18.42
2022-10-13T14:10:18.262Z,18.36
2022-10-13T14:12:45.790Z,18.26
2022-10-13T14:15:15.866Z,18.18
2022-10-13T14:17:45.612Z,18.12
2022-10-13T14:20:13.110Z,18.06
2022-10-13T14:22:43.304Z,18.03
2022-10-13T14:25:11.515Z,17.96
2022-10-13T14:27:39.030Z,17.90
2022-10-13T14:30:07.718Z,17.85
2022-10-13T14:32:38.558Z,17.77
2022-10-13T14:35:11.302Z,17.70
2022-10-13T14:37:39.254Z,17.63
2022-10-13T14:40:07.501Z,17.60
2022-10-13T14:42:34.999Z,17.54
2022-10-13T14:45:02.985Z,17.42
2022-10-13T14:47:30.469Z,17.39
2022-10-13T14:49:57.951Z,17.33
2022-10-13T14:52:25.473Z,17.32
2022-10-13T14:54:55.337Z,17.23
2022-10-13T14:57:23.383Z,17.19
2022-10-13T14:59:51.052Z,17.09
2022-10-13T15:02:18.574Z,16.98
2022-10-13T15:04:48.595Z,16.82
2022-10-13T15:07:18.625Z,16.65
2022-10-13T15:09:52.739Z,16.54
2022-10-13T15:12:28.396Z,16.37
2022-10-13T15:14:58.062Z,16.25
2022-10-13T15:17:25.569Z,16.13
2022-10-13T15:19:53.078Z,15.98
2022-10-13T15:22:20.776Z,15.84
2022-10-13T15:24:48.500Z,15.70
2022-10-13T15:27:16.147Z,15.56
2022-10-13T15:29:48.605Z,15.44
2022-10-13T15:32:20.377Z,15.33
2022-10-13T15:34:48.316Z,15.21
2022-10-13T15:37:20.263Z,15.11
2022-10-13T15:39:51.999Z,15.00
2022-10-13T15:42:24.368Z,14.86
2022-10-13T15:45:11.074Z,14.78
2022-10-13T15:47:39.414Z,14.64
2022-10-13T15:50:07.507Z,14.50
2022-10-13T15:52:39.766Z,14.35
2022-10-13T15:55:08.945Z,14.28
2022-10-13T15:57:36.492Z,14.15
2022-10-13T16:00:06.342Z,14.01
2022-10-13T16:02:36.330Z,13.86
2022-10-13T16:05:05.397Z,13.74
2022-10-13T16:07:36.122Z,13.66
2022-10-13T16:10:04.298Z,13.60
2022-10-13T16:12:31.961Z,13.50
2022-10-13T16:14:59.481Z,13.43
2022-10-13T16:17:27.020Z,13.36
2022-10-13T16:19:56.703Z,13.27
2022-10-13T16:22:24.230Z,13.20
2022-10-13T16:24:52.409Z,13.11
2022-10-13T16:27:20.205Z,13.06
2022-10-13T16:29:47.707Z,13.00
2022-10-13T16:32:15.461Z,12.91
2022-10-13T16:34:42.970Z,12.88
2022-10-13T16:37:10.511Z,12.85
2022-10-13T16:39:42.628Z,12.80
2022-10-13T16:42:11.489Z,12.75
2022-10-13T16:44:39.839Z,12.68
2022-10-13T16:47:11.082Z,12.65
2022-10-13T16:49:41.267Z,12.59
2022-10-13T16:52:09.179Z,12.54
2022-10-13T16:54:37.709Z,12.50
2022-10-13T16:57:05.363Z,12.50
2022-10-13T16:59:32.880Z,12.44
2022-10-13T17:02:00.447Z,12.35
2022-10-13T17:04:28.898Z,12.27
2022-10-13T17:06:56.494Z,12.24
2022-10-13T17:09:26.220Z,12.17
2022-10-13T17:11:53.697Z,12.11
2022-10-13T17:14:21.166Z,12.06
2022-10-13T17:16:48.673Z,11.99
2022-10-13T17:19:17.602Z,11.94
2022-10-13T17:21:45.611Z,11.85
2022-10-13T17:24:16.987Z,11.88
2022-10-13T17:26:44.579Z,11.83
2022-10-13T17:29:12.177Z,11.78
2022-10-13T17:31:41.441Z,11.76
2022-10-13T17:34:11.381Z,11.68
2022-10-13T17:36:39.204Z,11.65
2022-10-13T17:39:09.755Z,11.67
2022-10-13T17:41:38.107Z,11.67
2022-10-13T17:44:05.818Z,11.67
2022-10-13T17:46:38.636Z,11.68
2022-10-13T17:49:11.600Z,11.65
2022-10-13T17:51:40.743Z,11.57
2022-10-13T17:54:16.034Z,11.56
2022-10-13T17:56:45.422Z,11.53
2022-10-13T17:59:16.405Z,11.49
2022-10-13T18:01:46.334Z,11.47
2022-10-13T18:04:19.677Z,11.46
2022-10-13T18:06:50.443Z,11.44
2022-10-13T18:09:24.168Z,11.38
2022-10-13T18:11:54.407Z,11.34
2022-10-13T18:14:24.192Z,11.32
2022-10-13T18:16:52.866Z,11.30
2022-10-13T18:19:21.706Z,11.30
2022-10-13T18:21:50.133Z,11.27
2022-10-13T18:24:20.278Z,11.25
2022-10-13T18:26:48.067Z,11.26
2022-10-13T18:29:15.923Z,11.22
2022-10-13T18:31:45.895Z,11.20
2022-10-13T18:34:20.892Z,11.17
2022-10-13T18:36:52.720Z,11.11
2022-10-13T18:39:26.410Z,11.11
2022-10-13T18:41:55.875Z,11.10
2022-10-13T18:44:26.353Z,11.09
2022-10-13T18:46:56.480Z,11.06
2022-10-13T18:49:31.055Z,11.05
2022-10-13T18:51:59.223Z,11.02
2022-10-13T18:54:27.602Z,11.00
2022-10-13T18:56:55.135Z,10.97
2022-10-13T18:59:23.786Z,10.96
2022-10-13T19:01:51.377Z,10.92
2022-10-13T19:04:21.533Z,10.88
2022-10-13T19:06:49.342Z,10.83
2022-10-13T19:09:19.078Z,10.80
2022-10-13T19:11:48.951Z,10.79
2022-10-13T19:14:19.009Z,10.77
2022-10-13T19:16:50.806Z,10.77
2022-10-13T19:19:18.445Z,10.76
2022-10-13T19:21:48.474Z,10.74
2022-10-13T19:24:15.942Z,10.75
2022-10-13T19:26:43.440Z,10.76
2022-10-13T19:29:13.625Z,10.77
2022-10-13T19:31:43.830Z,10.75
2022-10-13T19:34:13.018Z,10.76
2022-10-13T19:36:43.509Z,10.73
2022-10-13T19:39:24.976Z,10.75
2022-10-13T19:41:56.551Z,10.71
2022-10-13T19:44:25.859Z,10.68
2022-10-13T19:46:55.109Z,10.62
2022-10-13T19:49:26.184Z,10.60
2022-10-13T19:51:54.794Z,10.57
2022-10-13T19:54:22.802Z,10.52
2022-10-13T19:56:52.027Z,10.47
2022-10-13T19:59:20.176Z,10.46
2022-10-13T20:01:48.947Z,10.44
2022-10-13T20:04:18.449Z,10.45
2022-10-13T20:06:46.283Z,10.38
2022-10-13T20:09:13.793Z,10.37
2022-10-13T20:11:44.118Z,10.31
2022-10-13T20:14:11.630Z,10.21
2022-10-13T20:16:39.177Z,10.17
2022-10-13T20:19:06.931Z,10.14
2022-10-13T20:21:34.469Z,10.07
2022-10-13T20:24:06.954Z,10.04
2022-10-13T20:26:34.671Z,10.00
2022-10-13T20:29:02.493Z,9.97
2022-10-13T20:31:30.143Z,9.97
2022-10-13T20:33:59.488Z,9.99
2022-10-13T20:36:28.271Z,9.98
2022-10-13T20:38:56.037Z,9.97
2022-10-13T20:41:24.643Z,9.96
2022-10-13T20:43:53.477Z,9.94
2022-10-13T20:46:23.624Z,9.95
2022-10-13T20:49:10.038Z,9.96
2022-10-13T20:51:38.798Z,9.92
2022-10-13T20:54:06.393Z,9.92
2022-10-13T20:56:34.281Z,9.86
2022-10-13T20:59:11.384Z,9.85
2022-10-13T21:01:39.781Z,9.83
2022-10-13T21:04:07.971Z,9.82
2022-10-13T21:06:36.153Z,9.79
2022-10-13T21:09:05.573Z,9.74
2022-10-13T21:11:35.863Z,9.72
2022-10-13T21:14:07.594Z,9.73
2022-10-13T21:16:35.901Z,9.63
2022-10-13T21:19:06.349Z,9.56
2022-10-13T21:21:35.063Z,9.54
2022-10-13T21:24:06.048Z,9.57
2022-10-13T21:26:34.934Z,9.54
2022-10-13T21:29:05.908Z,9.53
2022-10-13T21:31:33.768Z,9.52
2022-10-13T21:34:01.253Z,9.45
2022-10-13T21:36:31.603Z,9.41
2022-10-13T21:39:02.407Z,9.39
2022-10-13T21:41:30.538Z,9.38
2022-10-13T21:43:58.505Z,9.37
2022-10-13T21:46:29.088Z,9.33
2022-10-13T21:49:01.795Z,9.24
2022-10-13T21:51:34.030Z,9.26
2022-10-13T21:54:07.022Z,9.24
2022-10-13T21:56:35.488Z,9.27
2022-10-13T21:59:05.883Z,9.25
2022-10-13T22:01:34.031Z,9.21
2022-10-13T22:04:03.397Z,9.23
2022-10-13T22:06:34.079Z,9.23
2022-10-13T22:09:09.225Z,9.20
2022-10-13T22:11:38.063Z,9.21
2022-10-13T22:14:06.230Z,9.17
2022-10-13T22:16:38.874Z,9.20
2022-10-13T22:19:07.650Z,9.16
2022-10-13T22:21:39.506Z,9.15
2022-10-13T22:24:10.062Z,9.12
2022-10-13T22:26:41.422Z,9.07
2022-10-13T22:29:10.742Z,9.03
2022-10-13T22:31:38.377Z,8.97
2022-10-13T22:34:06.151Z,8.96
2022-10-13T22:36:33.708Z,8.95
2022-10-13T22:39:05.710Z,8.90
2022-10-13T22:41:34.826Z,8.88
2022-10-13T22:44:07.223Z,8.82
2022-10-13T22:46:38.197Z,8.81
2022-10-13T22:49:09.002Z,8.79
2022-10-13T22:51:37.803Z,8.78
2022-10-13T22:54:06.070Z,8.79
2022-10-13T22:56:34.866Z,8.78
2022-10-13T22:59:09.233Z,8.77
2022-10-13T23:01:38.975Z,8.76
2022-10-13T23:04:06.971Z,8.77
2022-10-13T23:06:36.233Z,8.77
2022-10-13T23:09:09.673Z,8.75
2022-10-13T23:11:37.315Z,8.74
2022-10-13T23:14:05.602Z,8.77
2022-10-13T23:16:33.640Z,8.71
2022-10-13T23:19:01.210Z,8.70
2022-10-13T23:21:30.700Z,8.68
2022-10-13T23:24:00.486Z,8.64
2022-10-13T23:26:28.809Z,8.62
2022-10-13T23:28:57.698Z,8.60
2022-10-13T23:31:26.354Z,8.59
2022-10-13T23:33:54.508Z,8.55
2022-10-13T23:36:24.963Z,8.55
2022-10-13T23:38:57.318Z,8.56
2022-10-13T23:41:24.881Z,8.54
2022-10-13T23:43:52.431Z,8.47
2022-10-13T23:46:19.994Z,8.46
2022-10-13T23:48:47.952Z,8.43
2022-10-13T23:51:21.449Z,8.38
2022-10-13T23:53:49.026Z,8.44
2022-10-13T23:56:19.166Z,8.41
2022-10-13T23:58:47.181Z,8.43
